createdAt,value
2022-10-10T00:01:53.079Z,96246.19
2022-10-10T00:04:40.314Z,96249.75
2022-10-10T00:07:26.110Z,96255.69
2022-10-10T00:10:11.849Z,96260.38
2022-10-10T00:12:58.002Z,96259.91
2022-10-10T00:15:48.574Z,96267.75
2022-10-10T00:18:34.718Z,96260.81
2022-10-10T00:21:20.343Z,96268.41
2022-10-10T00:24:06.562Z,96265.19
2022-10-10T00:26:52.612Z,96275.50
2022-10-10T00:29:38.216Z,96259.91
2022-10-10T00:32:24.075Z,96261.00
2022-10-10T00:35:10.482Z,96260.00
2022-10-10T00:37:56.650Z,96267.59
2022-10-10T00:41:00.463Z,96272.53
2022-10-10T00:44:02.069Z,96261.78
2022-10-10T00:46:48.066Z,96264.78
2022-10-10T00:49:34.852Z,96264.84
2022-10-10T00:52:20.317Z,96264.06
2022-10-10T00:55:06.922Z,96255.19
2022-10-10T00:57:53.274Z,96250.03
2022-10-10T01:00:39.658Z,96252.19
2022-10-10T01:03:25.874Z,96246.81
2022-10-10T01:06:11.914Z,96247.91
2022-10-10T01:08:57.957Z,96246.09
2022-10-10T01:12:13.726Z,96245.03
2022-10-10T01:15:07.281Z,96242.13
2022-10-10T01:18:08.580Z,96246.53
2022-10-10T01:21:18.468Z,96244.91
2022-10-10T01:24:19.507Z,96244.34
2022-10-10T01:27:31.215Z,96241.72
2022-10-10T01:30:23.041Z,96248.22
2022-10-10T01:33:29.815Z,96238.25
2022-10-10T01:36:17.601Z,96244.72
2022-10-10T01:39:23.019Z,96241.78
2022-10-10T01:42:42.542Z,96236.94
2022-10-10T01:45:31.462Z,96241.25
2022-10-10T01:48:29.347Z,96238.03
2022-10-10T01:51:17.985Z,96247.16
2022-10-10T01:54:13.687Z,96246.13
2022-10-10T01:57:08.624Z,96248.81
2022-10-10T02:00:07.074Z,96245.63
2022-10-10T02:03:04.543Z,96237.56
2022-10-10T02:06:08.333Z,96236.75
2022-10-10T02:09:10.381Z,96245.16
2022-10-10T02:11:58.328Z,96232.25
2022-10-10T02:14:46.798Z,96242.72
2022-10-10T02:17:35.299Z,96240.34
2022-10-10T02:20:24.170Z,96238.72
2022-10-10T02:23:13.365Z,96236.59
2022-10-10T02:25:59.537Z,96229.63
2022-10-10T02:28:57.277Z,96238.34
2022-10-10T02:32:04.734Z,96229.25
2022-10-10T02:35:01.180Z,96234.50
2022-10-10T02:37:47.390Z,96242.66
2022-10-10T02:40:34.694Z,96243.25
2022-10-10T02:43:20.772Z,96237.66
2022-10-10T02:46:09.807Z,96235.56
2022-10-10T02:48:55.641Z,96238.88
2022-10-10T02:51:41.374Z,96234.56
2022-10-10T02:54:27.157Z,96235.38
2022-10-10T02:57:13.040Z,96231.34
2022-10-10T02:59:58.766Z,96242.09
2022-10-10T03:02:45.519Z,96248.53
2022-10-10T03:05:31.270Z,96250.13
2022-10-10T03:08:17.172Z,96254.94
2022-10-10T03:11:03.174Z,96254.34
2022-10-10T03:13:48.918Z,96252.97
2022-10-10T03:16:34.634Z,96256.72
2022-10-10T03:19:20.347Z,96255.91
2022-10-10T03:22:06.214Z,96248.63
2022-10-10T03:24:51.991Z,96258.53
2022-10-10T03:27:37.994Z,96252.00
2022-10-10T03:30:23.634Z,96252.22
2022-10-10T03:33:09.962Z,96247.06
2022-10-10T03:35:55.967Z,96249.16
2022-10-10T03:38:41.549Z,96241.31
2022-10-10T03:41:27.554Z,96232.94
2022-10-10T03:44:13.596Z,96231.34
2022-10-10T03:46:59.697Z,96241.56
2022-10-10T03:49:45.420Z,96245.34
2022-10-10T03:52:31.206Z,96242.72
2022-10-10T03:55:17.245Z,96240.06
2022-10-10T03:58:03.183Z,96225.56
2022-10-10T04:00:56.832Z,96234.66
2022-10-10T04:03:42.600Z,96233.56
2022-10-10T04:06:29.311Z,96224.91
2022-10-10T04:09:15.369Z,96228.06
2022-10-10T04:12:01.763Z,96226.19
2022-10-10T04:14:47.642Z,96226.41
2022-10-10T04:17:33.474Z,96222.09
2022-10-10T04:20:19.255Z,96220.22
2022-10-10T04:23:05.164Z,96234.97
2022-10-10T04:25:52.839Z,96230.22
2022-10-10T04:28:38.676Z,96214.13
2022-10-10T04:31:24.667Z,96232.91
2022-10-10T04:34:10.643Z,96233.44
2022-10-10T04:36:56.442Z,96224.22
2022-10-10T04:39:42.426Z,96236.06
2022-10-10T04:42:28.227Z,96225.25
2022-10-10T04:45:14.314Z,96232.72
2022-10-10T04:48:00.097Z,96230.28
2022-10-10T04:50:51.757Z,96232.16
2022-10-10T04:53:37.731Z,96236.19
2022-10-10T04:56:25.680Z,96233.53
2022-10-10T04:59:12.090Z,96225.72
2022-10-10T05:02:01.539Z,96231.13
2022-10-10T05:04:47.910Z,96234.41
2022-10-10T05:07:33.720Z,96231.72
2022-10-10T05:10:19.719Z,96219.81
2022-10-10T05:13:07.029Z,96234.59
2022-10-10T05:15:53.248Z,96235.63
2022-10-10T05:18:39.100Z,96245.00
2022-10-10T05:21:25.363Z,96243.34
2022-10-10T05:24:11.110Z,96241.38
2022-10-10T05:26:56.995Z,96239.44
2022-10-10T05:29:42.852Z,96234.47
2022-10-10T05:32:28.520Z,96243.31
2022-10-10T05:35:14.422Z,96243.56
2022-10-10T05:38:00.124Z,96247.25
2022-10-10T05:40:46.034Z,96252.31
2022-10-10T05:43:32.030Z,96236.91
2022-10-10T05:46:20.406Z,96245.34
2022-10-10T05:49:06.110Z,96251.81
2022-10-10T05:51:51.991Z,96257.66
2022-10-10T05:54:38.014Z,96253.28
2022-10-10T05:57:23.827Z,96255.41
2022-10-10T06:00:10.183Z,96266.59
2022-10-10T06:02:58.452Z,96256.59
2022-10-10T06:05:45.931Z,96265.94
2022-10-10T06:08:32.444Z,96266.44
2022-10-10T06:11:19.388Z,96260.47
2022-10-10T06:14:05.478Z,96257.25
2022-10-10T06:16:51.434Z,96276.59
2022-10-10T06:19:37.055Z,96259.78
2022-10-10T06:22:22.949Z,96262.34
2022-10-10T06:25:23.944Z,96264.47
2022-10-10T06:28:16.041Z,96268.16
2022-10-10T06:31:04.110Z,96268.63
2022-10-10T06:33:50.090Z,96254.75
2022-10-10T06:36:36.051Z,96267.25
2022-10-10T06:39:21.932Z,96266.78
2022-10-10T06:42:08.165Z,96278.22
2022-10-10T06:44:54.183Z,96278.03
2022-10-10T06:47:40.126Z,96276.22
2022-10-10T06:50:26.990Z,96281.53
2022-10-10T06:53:12.793Z,96292.91
2022-10-10T06:55:59.117Z,96277.03
2022-10-10T06:58:44.969Z,96290.19
2022-10-10T07:01:31.202Z,96262.97
2022-10-10T07:04:17.074Z,96286.19
2022-10-10T07:07:03.114Z,96292.13
2022-10-10T07:09:49.074Z,96285.59
2022-10-10T07:12:42.125Z,96283.91
2022-10-10T07:15:33.411Z,96278.47
2022-10-10T07:18:20.501Z,96280.47
2022-10-10T07:21:06.663Z,96278.66
2022-10-10T07:23:52.446Z,96282.91
2022-10-10T07:26:38.349Z,96286.50
2022-10-10T07:29:24.668Z,96282.28
2022-10-10T07:32:10.464Z,96297.94
2022-10-10T07:34:58.373Z,96294.72
2022-10-10T07:37:45.331Z,96283.06
2022-10-10T07:40:31.601Z,96286.09
2022-10-10T07:43:18.528Z,96290.91
2022-10-10T07:46:08.254Z,96289.00
2022-10-10T07:48:57.217Z,96289.50
2022-10-10T07:51:43.441Z,96285.06
2022-10-10T07:54:30.422Z,96281.25
2022-10-10T07:57:16.362Z,96289.00
2022-10-10T08:00:10.433Z,96282.03
2022-10-10T08:02:59.638Z,96279.19
2022-10-10T08:05:47.097Z,96274.81
2022-10-10T08:08:34.556Z,96278.53
2022-10-10T08:11:22.107Z,96279.63
2022-10-10T08:14:08.288Z,96285.66
2022-10-10T08:16:53.982Z,96288.88
2022-10-10T08:19:39.724Z,96298.13
2022-10-10T08:22:25.622Z,96290.59
2022-10-10T08:25:11.503Z,96293.72
2022-10-10T08:27:57.377Z,96294.84
2022-10-10T08:30:43.237Z,96296.59
2022-10-10T08:33:29.113Z,96288.09
2022-10-10T08:36:20.875Z,96291.84
2022-10-10T08:39:07.074Z,96289.34
2022-10-10T08:41:57.337Z,96286.72
2022-10-10T08:44:48.306Z,96281.63
2022-10-10T08:47:52.815Z,96275.91
2022-10-10T08:50:57.143Z,96277.91
2022-10-10T08:53:48.511Z,96280.03
2022-10-10T08:56:34.945Z,96275.75
2022-10-10T08:59:27.098Z,96261.81
2022-10-10T09:02:43.569Z,96269.56
2022-10-10T09:05:33.634Z,96271.50
2022-10-10T09:08:42.747Z,96249.91
2022-10-10T09:11:42.548Z,96261.13
2022-10-10T09:14:33.197Z,96258.91
2022-10-10T09:17:45.278Z,96259.88
2022-10-10T09:20:31.359Z,96252.53
2022-10-10T09:23:35.330Z,96257.16
2022-10-10T09:26:22.850Z,96257.34
2022-10-10T09:29:29.257Z,96259.44
2022-10-10T09:32:20.468Z,96260.25
2022-10-10T09:35:24.334Z,96255.41
2022-10-10T09:38:31.808Z,96264.88
2022-10-10T09:41:23.559Z,96263.41
2022-10-10T09:44:14.776Z,96247.25
2022-10-10T09:47:00.960Z,96254.13
2022-10-10T09:49:46.929Z,96256.22
2022-10-10T09:52:33.193Z,96245.66
2022-10-10T09:55:29.374Z,96242.91
2022-10-10T09:58:39.972Z,96249.88
2022-10-10T10:01:33.034Z,96239.28
2022-10-10T10:04:28.811Z,96232.38
2022-10-10T10:07:24.375Z,96240.06
2022-10-10T10:10:21.958Z,96234.72
2022-10-10T10:13:14.136Z,96236.72
2022-10-10T10:16:12.066Z,96237.94
2022-10-10T10:18:58.097Z,96234.09
2022-10-10T10:21:51.476Z,96226.34
2022-10-10T10:24:37.735Z,96222.81
2022-10-10T10:27:26.057Z,96223.28
2022-10-10T10:30:25.626Z,96229.53
2022-10-10T10:33:30.461Z,96232.84
2022-10-10T10:37:15.353Z,96233.28
2022-10-10T10:40:53.520Z,96227.78
2022-10-10T10:43:43.627Z,96221.31
2022-10-10T10:46:57.311Z,96230.59
2022-10-10T10:49:55.832Z,96229.78
2022-10-10T10:52:58.426Z,96231.97
2022-10-10T10:55:56.265Z,96224.72
2022-10-10T11:02:10.268Z,96219.75
2022-10-10T11:05:28.259Z,96200.56
2022-10-10T11:08:58.226Z,96198.81
2022-10-10T11:12:10.550Z,96180.69
2022-10-10T11:15:08.779Z,96181.75
2022-10-10T11:18:14.700Z,96172.53
2022-10-10T11:21:26.017Z,96162.53
2022-10-10T11:24:35.187Z,96158.94
2022-10-10T11:27:26.546Z,96165.41
2022-10-10T11:30:15.639Z,96154.31
2022-10-10T11:33:10.244Z,96151.31
2022-10-10T11:36:05.505Z,96156.84
2022-10-10T11:38:56.737Z,96158.72
2022-10-10T11:41:52.362Z,96145.69
2022-10-10T11:44:45.755Z,96136.38
2022-10-10T11:47:35.975Z,96133.84
2022-10-10T11:50:41.368Z,96133.16
2022-10-10T11:53:40.559Z,96138.34
2022-10-10T11:56:33.549Z,96135.22
2022-10-10T11:59:40.290Z,96135.94
2022-10-10T12:02:36.995Z,96134.06
2022-10-10T12:05:25.779Z,96123.00
2022-10-10T12:08:21.088Z,96111.47
2022-10-10T12:11:16.804Z,96122.75
2022-10-10T12:14:09.083Z,96118.72
2022-10-10T12:16:56.026Z,96119.50
2022-10-10T12:19:41.779Z,96122.94
2022-10-10T12:22:28.911Z,96119.03
2022-10-10T12:25:25.999Z,96109.75
2022-10-10T12:28:14.985Z,96112.59
2022-10-10T12:31:04.572Z,96107.91
2022-10-10T12:33:50.705Z,96113.59
2022-10-10T12:36:39.442Z,96102.91
2022-10-10T12:39:25.240Z,96102.78
2022-10-10T12:42:40.000Z,96104.50
2022-10-10T12:45:39.974Z,96099.81
2022-10-10T12:48:25.891Z,96101.84
2022-10-10T12:51:21.333Z,96115.16
2022-10-10T12:54:08.372Z,96098.22
2022-10-10T12:57:35.484Z,96092.88
2022-10-10T13:00:24.448Z,96091.53
2022-10-10T13:03:39.312Z,96081.03
2022-10-10T13:06:28.014Z,96082.22
2022-10-10T13:09:17.564Z,96086.66
2022-10-10T13:12:06.469Z,96082.94
2022-10-10T13:14:52.440Z,96081.56
2022-10-10T13:17:41.458Z,96083.53
2022-10-10T13:20:37.361Z,96083.88
2022-10-10T13:23:24.404Z,96084.16
2022-10-10T13:26:32.181Z,96088.16
2022-10-10T13:29:24.395Z,96074.88
2022-10-10T13:32:18.416Z,96074.50
2022-10-10T13:35:06.772Z,96076.72
2022-10-10T13:37:57.718Z,96067.31
2022-10-10T13:40:44.260Z,96074.06
2022-10-10T13:43:30.579Z,96056.28
2022-10-10T13:46:22.658Z,96066.28
2022-10-10T13:49:26.629Z,96068.75
2022-10-10T13:52:23.278Z,96055.13
2022-10-10T13:55:24.798Z,96056.59
2022-10-10T13:58:10.805Z,96050.75
2022-10-10T14:00:59.199Z,96046.84
2022-10-10T14:03:46.972Z,96041.31
2022-10-10T14:06:33.080Z,96039.69
2022-10-10T14:09:30.786Z,96043.63
2022-10-10T14:12:25.162Z,96045.09
2022-10-10T14:15:37.800Z,96041.06
2022-10-10T14:18:25.771Z,96043.53
2022-10-10T14:21:12.097Z,96051.53
2022-10-10T14:23:57.873Z,96052.41
2022-10-10T14:26:44.302Z,96042.88
2022-10-10T14:29:30.253Z,96050.75
2022-10-10T14:32:16.466Z,96051.41
2022-10-10T14:35:02.307Z,96037.78
2022-10-10T14:37:47.985Z,96048.72
2022-10-10T14:40:34.412Z,96054.03
2022-10-10T14:43:21.073Z,96047.81
2022-10-10T14:46:10.027Z,96043.19
2022-10-10T14:48:56.029Z,96042.88
2022-10-10T14:51:41.774Z,96047.31
2022-10-10T14:54:27.494Z,96045.78
2022-10-10T14:57:14.681Z,96040.44
2022-10-10T15:00:00.540Z,96029.47
2022-10-10T15:02:46.629Z,96032.78
2022-10-10T15:05:32.639Z,96043.56
2022-10-10T15:08:19.326Z,96035.38
2022-10-10T15:11:05.677Z,96031.97
2022-10-10T15:13:51.653Z,96034.50
2022-10-10T15:16:37.483Z,96036.19
2022-10-10T15:19:23.652Z,96023.25
2022-10-10T15:22:09.796Z,96021.66
2022-10-10T15:24:55.883Z,96032.09
2022-10-10T15:27:41.857Z,96034.13
2022-10-10T15:30:27.843Z,96034.63
2022-10-10T15:33:13.681Z,96031.88
2022-10-10T15:36:10.192Z,96037.94
2022-10-10T15:38:58.579Z,96047.84
2022-10-10T15:41:45.045Z,96035.72
2022-10-10T15:44:31.212Z,96048.75
2022-10-10T15:47:19.168Z,96047.63
2022-10-10T15:50:05.191Z,96040.97
2022-10-10T15:52:50.798Z,96042.19
2022-10-10T15:55:44.815Z,96042.63
2022-10-10T15:58:30.756Z,96038.34
2022-10-10T16:01:20.067Z,96046.72
2022-10-10T16:04:06.490Z,96055.00
2022-10-10T16:07:20.022Z,96056.31
2022-10-10T16:10:01.390Z,96045.72
2022-10-10T16:12:49.341Z,96041.09
2022-10-10T16:15:35.740Z,96053.91
2022-10-10T16:18:21.634Z,96052.00
2022-10-10T16:21:14.074Z,96053.28
2022-10-10T16:24:00.941Z,96054.63
2022-10-10T16:26:46.881Z,96053.63
2022-10-10T16:29:32.537Z,96052.63
2022-10-10T16:32:19.483Z,96053.66
2022-10-10T16:35:05.657Z,96053.09
2022-10-10T16:37:51.668Z,96048.94
2022-10-10T16:40:37.425Z,96051.22
2022-10-10T16:43:23.225Z,96045.66
2022-10-10T16:46:10.419Z,96047.16
2022-10-10T16:48:59.186Z,96049.28
2022-10-10T16:51:45.219Z,96044.53
2022-10-10T16:54:30.930Z,96060.16
2022-10-10T16:57:17.345Z,96048.75
2022-10-10T17:00:05.237Z,96053.75
2022-10-10T17:02:51.297Z,96043.50
2022-10-10T17:05:37.450Z,96063.09
2022-10-10T17:08:23.228Z,96064.22
2022-10-10T17:11:09.755Z,96060.69
2022-10-10T17:13:55.898Z,96058.31
2022-10-10T17:17:10.687Z,96063.34
2022-10-10T17:19:49.344Z,96059.00
2022-10-10T17:22:35.357Z,96058.22
2022-10-10T17:25:21.497Z,96066.75
2022-10-10T17:28:07.565Z,96063.56
2022-10-10T17:30:53.230Z,96072.88
2022-10-10T17:33:39.551Z,96079.84
2022-10-10T17:36:27.932Z,96084.53
2022-10-10T17:39:13.894Z,96077.22
2022-10-10T17:42:00.316Z,96078.13
2022-10-10T17:44:51.441Z,96075.59
2022-10-10T17:47:41.492Z,96077.22
2022-10-10T17:50:27.386Z,96075.94
2022-10-10T17:53:13.520Z,96080.19
2022-10-10T17:55:59.421Z,96084.06
2022-10-10T17:58:46.195Z,96077.66
2022-10-10T18:01:32.203Z,96083.78
2022-10-10T18:04:18.220Z,96087.22
2022-10-10T18:07:04.037Z,96085.63
2022-10-10T18:09:53.104Z,96076.97
2022-10-10T18:12:39.147Z,96081.16
2022-10-10T18:15:25.460Z,96078.75
2022-10-10T18:18:11.464Z,96076.34
2022-10-10T18:21:02.689Z,96080.13
2022-10-10T18:23:49.577Z,96084.94
2022-10-10T18:26:36.299Z,96084.13
2022-10-10T18:29:22.160Z,96096.53
2022-10-10T18:32:08.012Z,96095.72
2022-10-10T18:34:54.340Z,96094.78
2022-10-10T18:37:40.196Z,96089.22
2022-10-10T18:40:26.122Z,96093.09
2022-10-10T18:43:12.887Z,96083.63
2022-10-10T18:46:02.691Z,96083.50
2022-10-10T18:48:53.544Z,96083.94
2022-10-10T18:51:43.281Z,96084.16
2022-10-10T18:54:30.633Z,96081.84
2022-10-10T18:57:16.496Z,96081.06
2022-10-10T19:00:02.423Z,96076.38
2022-10-10T19:02:48.104Z,96080.25
2022-10-10T19:05:33.736Z,96079.50
2022-10-10T19:08:19.665Z,96075.50
2022-10-10T19:11:07.329Z,96064.56
2022-10-10T19:13:53.812Z,96060.09
2022-10-10T19:16:41.003Z,96072.28
2022-10-10T19:19:26.959Z,96063.63
2022-10-10T19:22:12.784Z,96049.50
2022-10-10T19:24:58.576Z,96027.53
2022-10-10T19:27:44.586Z,96025.59
2022-10-10T19:30:30.254Z,96043.94
2022-10-10T19:33:16.036Z,96046.06
2022-10-10T19:36:04.410Z,96059.38
2022-10-10T19:38:50.570Z,96060.03
2022-10-10T19:41:37.739Z,96049.13
2022-10-10T19:44:23.504Z,96045.13
2022-10-10T19:47:09.308Z,96057.53
2022-10-10T19:49:55.390Z,96062.19
2022-10-10T19:52:41.804Z,96068.66
2022-10-10T19:55:27.581Z,96054.19
2022-10-10T19:58:14.069Z,96056.34
2022-10-10T20:01:00.161Z,96057.16
2022-10-10T20:03:48.936Z,96051.56
2022-10-10T20:06:35.831Z,96056.88
2022-10-10T20:09:21.684Z,96057.56
2022-10-10T20:12:07.863Z,96059.34
2022-10-10T20:14:53.999Z,96061.16
2022-10-10T20:17:40.086Z,96065.69
2022-10-10T20:20:26.267Z,96054.97
2022-10-10T20:23:13.001Z,96054.81
2022-10-10T20:25:59.024Z,96051.97
2022-10-10T20:28:46.145Z,96058.91
2022-10-10T20:31:34.965Z,96048.63
2022-10-10T20:34:20.684Z,96038.75
2022-10-10T20:37:06.572Z,96050.13
2022-10-10T20:39:52.631Z,96048.53
2022-10-10T20:42:38.399Z,96044.22
2022-10-10T20:45:24.563Z,96055.44
2022-10-10T20:48:10.513Z,96053.50
2022-10-10T20:51:01.671Z,96044.38
2022-10-10T20:53:56.735Z,96054.63
2022-10-10T20:56:44.879Z,96060.75
2022-10-10T20:59:30.866Z,96056.91
2022-10-10T21:02:19.396Z,96061.41
2022-10-10T21:05:06.182Z,96059.69
2022-10-10T21:07:52.331Z,96056.47
2022-10-10T21:10:39.882Z,96065.78
2022-10-10T21:13:26.070Z,96068.50
2022-10-10T21:16:15.514Z,96070.44
2022-10-10T21:19:01.637Z,96063.84
2022-10-10T21:21:47.512Z,96064.63
2022-10-10T21:24:33.211Z,96069.81
2022-10-10T21:27:19.265Z,96065.94
2022-10-10T21:30:05.562Z,96062.09
2022-10-10T21:32:51.929Z,96053.44
2022-10-10T21:35:38.316Z,96058.22
2022-10-10T21:38:24.903Z,96055.50
2022-10-10T21:41:13.359Z,96051.19
2022-10-10T21:44:00.314Z,96049.56
2022-10-10T21:46:46.244Z,96047.97
2022-10-10T21:49:33.645Z,96053.44
2022-10-10T21:52:19.441Z,96051.81
2022-10-10T21:55:05.615Z,96055.66
2022-10-10T21:57:51.812Z,96049.41
2022-10-10T22:00:37.864Z,96036.78
2022-10-10T22:03:23.962Z,96050.53
2022-10-10T22:06:12.634Z,96056.31
2022-10-10T22:08:59.815Z,96048.13
2022-10-10T22:11:47.577Z,96047.78
2022-10-10T22:14:34.040Z,96052.44
2022-10-10T22:17:19.863Z,96041.88
2022-10-10T22:20:07.715Z,96045.41
2022-10-10T22:22:53.403Z,96053.59
2022-10-10T22:25:44.249Z,96049.25
2022-10-10T22:28:30.298Z,96039.13
2022-10-10T22:31:16.965Z,96039.13
2022-10-10T22:34:02.906Z,96037.91
2022-10-10T22:36:48.873Z,96039.03
2022-10-10T22:39:34.716Z,96035.81
2022-10-10T22:42:20.434Z,96043.69
2022-10-10T22:45:06.683Z,96031.97
2022-10-10T22:47:52.485Z,96036.16
2022-10-10T22:50:38.705Z,96040.47
2022-10-10T22:53:24.421Z,96036.81
2022-10-10T22:56:12.085Z,96038.06
2022-10-10T22:58:58.276Z,96031.03
2022-10-10T23:01:44.241Z,96020.75
2022-10-10T23:04:30.097Z,96020.75
2022-10-10T23:07:16.358Z,96018.03
2022-10-10T23:10:02.085Z,96023.06
2022-10-10T23:12:47.871Z,95996.63
2022-10-10T23:15:33.605Z,96008.78
2022-10-10T23:18:19.229Z,96004.78
2022-10-10T23:21:05.147Z,96008.19
2022-10-10T23:23:51.514Z,96013.97
2022-10-10T23:26:37.641Z,96009.19
2022-10-10T23:29:23.289Z,96016.09
2022-10-10T23:32:09.015Z,96025.38
2022-10-10T23:34:56.462Z,96033.13
2022-10-10T23:37:42.498Z,96038.59
2022-10-10T23:40:28.579Z,96050.13
2022-10-10T23:43:14.945Z,96049.97
2022-10-10T23:46:00.766Z,96049.88
2022-10-10T23:48:46.969Z,96049.88
2022-10-10T23:51:32.824Z,96039.59
2022-10-10T23:54:18.886Z,96040.41
2022-10-10T23:57:04.939Z,96035.28
2022-10-10T23:59:50.826Z,96029.34
